sensor_id;sensor_type;location;lat;lon;timestamp;P1;durP1;ratioP1;P2;durP2;ratioP2
14847;SDS011;7516;43.570;1.448;2023-03-14T00:02:13;5.93;;;1.87;;
14847;SDS011;7516;43.570;1.448;2023-03-14T00:04:40;4.73;;;1.00;;
14847;SDS011;7516;43.570;1.448;2023-03-14T00:07:09;5.80;;;1.67;;
14847;SDS011;7516;43.570;1.448;2023-03-14T00:09:37;5.47;;;1.20;;
14847;SDS011;7516;43.570;1.448;2023-03-14T00:12:05;5.90;;;1.30;;
14847;SDS011;7516;43.570;1.448;2023-03-14T00:14:34;4.37;;;1.40;;
14847;SDS011;7516;43.570;1.448;2023-03-14T00:17:02;5.33;;;1.33;;
14847;SDS011;7516;43.570;1.448;2023-03-14T00:19:29;3.80;;;1.03;;
14847;SDS011;7516;43.570;1.448;2023-03-14T00:21:57;6.93;;;1.33;;
14847;SDS011;7516;43.570;1.448;2023-03-14T00:24:24;6.87;;;1.23;;
14847;SDS011;7516;43.570;1.448;2023-03-14T00:26:52;4.40;;;1.20;;
14847;SDS011;7516;43.570;1.448;2023-03-14T00:29:19;5.30;;;1.37;;
14847;SDS011;7516;43.570;1.448;2023-03-14T00:31:48;4.30;;;1.37;;
14847;SDS011;7516;43.570;1.448;2023-03-14T00:34:15;6.33;;;1.70;;
14847;SDS011;7516;43.570;1.448;2023-03-14T00:36:44;6.13;;;1.27;;
14847;SDS011;7516;43.570;1.448;2023-03-14T00:39:11;6.70;;;1.50;;
14847;SDS011;7516;43.570;1.448;2023-03-14T00:41:39;5.03;;;1.20;;
14847;SDS011;7516;43.570;1.448;2023-03-14T00:44:06;3.70;;;1.07;;
14847;SDS011;7516;43.570;1.448;2023-03-14T00:46:33;4.83;;;1.20;;
14847;SDS011;7516;43.570;1.448;2023-03-14T00:49:02;5.10;;;1.10;;
14847;SDS011;7516;43.570;1.448;2023-03-14T00:51:30;5.13;;;1.17;;
14847;SDS011;7516;43.570;1.448;2023-03-14T00:53:58;6.43;;;1.30;;
14847;SDS011;7516;43.570;1.448;2023-03-14T00:56:26;6.20;;;1.20;;
14847;SDS011;7516;43.570;1.448;2023-03-14T00:58:54;4.27;;;1.10;;
14847;SDS011;7516;43.570;1.448;2023-03-14T01:01:22;6.63;;;1.50;;
14847;SDS011;7516;43.570;1.448;2023-03-14T01:03:50;5.27;;;1.33;;
14847;SDS011;7516;43.570;1.448;2023-03-14T01:06:22;4.17;;;1.20;;
14847;SDS011;7516;43.570;1.448;2023-03-14T01:08:51;6.73;;;1.67;;
14847;SDS011;7516;43.570;1.448;2023-03-14T01:11:20;5.00;;;1.20;;
14847;SDS011;7516;43.570;1.448;2023-03-14T01:13:48;7.80;;;1.47;;
14847;SDS011;7516;43.570;1.448;2023-03-14T01:16:16;4.83;;;1.20;;
14847;SDS011;7516;43.570;1.448;2023-03-14T01:18:45;7.67;;;1.60;;
14847;SDS011;7516;43.570;1.448;2023-03-14T01:21:14;4.97;;;1.33;;
14847;SDS011;7516;43.570;1.448;2023-03-14T01:23:44;5.13;;;1.60;;
14847;SDS011;7516;43.570;1.448;2023-03-14T01:26:13;5.77;;;1.27;;
14847;SDS011;7516;43.570;1.448;2023-03-14T01:28:44;4.53;;;1.20;;
14847;SDS011;7516;43.570;1.448;2023-03-14T01:31:12;5.43;;;1.33;;
14847;SDS011;7516;43.570;1.448;2023-03-14T01:33:40;6.00;;;1.33;;
14847;SDS011;7516;43.570;1.448;2023-03-14T01:36:08;6.07;;;1.67;;
14847;SDS011;7516;43.570;1.448;2023-03-14T01:38:37;7.47;;;1.93;;
14847;SDS011;7516;43.570;1.448;2023-03-14T01:41:07;7.50;;;1.60;;
14847;SDS011;7516;43.570;1.448;2023-03-14T01:43:39;6.20;;;1.10;;
14847;SDS011;7516;43.570;1.448;2023-03-14T01:46:28;5.57;;;1.60;;
14847;SDS011;7516;43.570;1.448;2023-03-14T01:49:04;7.67;;;1.47;;
14847;SDS011;7516;43.570;1.448;2023-03-14T01:51:42;7.07;;;1.70;;
14847;SDS011;7516;43.570;1.448;2023-03-14T01:54:17;5.63;;;1.33;;
14847;SDS011;7516;43.570;1.448;2023-03-14T01:56:52;5.80;;;1.53;;
14847;SDS011;7516;43.570;1.448;2023-03-14T01:59:23;6.87;;;2.03;;
14847;SDS011;7516;43.570;1.448;2023-03-14T02:01:52;9.77;;;1.90;;
14847;SDS011;7516;43.570;1.448;2023-03-14T02:04:21;7.47;;;2.10;;
14847;SDS011;7516;43.570;1.448;2023-03-14T02:06:54;7.07;;;2.27;;
14847;SDS011;7516;43.570;1.448;2023-03-14T02:09:25;9.90;;;2.47;;
14847;SDS011;7516;43.570;1.448;2023-03-14T02:11:54;12.40;;;2.13;;
14847;SDS011;7516;43.570;1.448;2023-03-14T02:14:25;10.67;;;2.30;;
14847;SDS011;7516;43.570;1.448;2023-03-14T02:16:56;11.60;;;2.47;;
14847;SDS011;7516;43.570;1.448;2023-03-14T02:19:26;7.50;;;2.13;;
14847;SDS011;7516;43.570;1.448;2023-03-14T02:22:03;12.90;;;2.70;;
14847;SDS011;7516;43.570;1.448;2023-03-14T02:24:35;12.67;;;3.00;;
14847;SDS011;7516;43.570;1.448;2023-03-14T02:27:11;12.73;;;2.57;;
14847;SDS011;7516;43.570;1.448;2023-03-14T02:29:41;10.60;;;1.90;;
14847;SDS011;7516;43.570;1.448;2023-03-14T02:32:15;9.93;;;2.37;;
14847;SDS011;7516;43.570;1.448;2023-03-14T02:34:44;12.63;;;2.60;;
14847;SDS011;7516;43.570;1.448;2023-03-14T02:37:15;10.97;;;2.70;;
14847;SDS011;7516;43.570;1.448;2023-03-14T02:39:46;10.93;;;2.90;;
14847;SDS011;7516;43.570;1.448;2023-03-14T02:42:16;13.30;;;2.80;;
14847;SDS011;7516;43.570;1.448;2023-03-14T02:44:50;10.37;;;2.20;;
14847;SDS011;7516;43.570;1.448;2023-03-14T02:47:20;10.07;;;2.67;;
14847;SDS011;7516;43.570;1.448;2023-03-14T02:49:54;12.53;;;2.23;;
14847;SDS011;7516;43.570;1.448;2023-03-14T02:52:26;10.70;;;2.80;;
14847;SDS011;7516;43.570;1.448;2023-03-14T02:54:54;10.73;;;3.10;;
14847;SDS011;7516;43.570;1.448;2023-03-14T02:57:23;11.43;;;2.53;;
14847;SDS011;7516;43.570;1.448;2023-03-14T02:59:50;11.23;;;2.50;;
14847;SDS011;7516;43.570;1.448;2023-03-14T03:02:18;10.40;;;1.97;;
14847;SDS011;7516;43.570;1.448;2023-03-14T03:04:45;10.47;;;2.50;;
14847;SDS011;7516;43.570;1.448;2023-03-14T03:07:13;9.20;;;2.27;;
14847;SDS011;7516;43.570;1.448;2023-03-14T03:09:40;10.17;;;1.87;;
14847;SDS011;7516;43.570;1.448;2023-03-14T03:12:08;9.30;;;2.20;;
14847;SDS011;7516;43.570;1.448;2023-03-14T03:14:36;9.87;;;2.40;;
14847;SDS011;7516;43.570;1.448;2023-03-14T03:17:04;8.20;;;1.77;;
14847;SDS011;7516;43.570;1.448;2023-03-14T03:19:33;9.20;;;2.50;;
14847;SDS011;7516;43.570;1.448;2023-03-14T03:22:01;7.63;;;1.67;;
14847;SDS011;7516;43.570;1.448;2023-03-14T03:24:29;12.27;;;2.43;;
14847;SDS011;7516;43.570;1.448;2023-03-14T03:26:56;10.17;;;2.73;;
14847;SDS011;7516;43.570;1.448;2023-03-14T03:29:24;9.67;;;2.47;;
14847;SDS011;7516;43.570;1.448;2023-03-14T03:31:53;11.20;;;2.53;;
14847;SDS011;7516;43.570;1.448;2023-03-14T03:34:21;12.43;;;3.30;;
14847;SDS011;7516;43.570;1.448;2023-03-14T03:36:48;10.87;;;2.43;;
14847;SDS011;7516;43.570;1.448;2023-03-14T03:39:16;9.07;;;2.30;;
14847;SDS011;7516;43.570;1.448;2023-03-14T03:41:44;11.17;;;2.80;;
14847;SDS011;7516;43.570;1.448;2023-03-14T03:44:11;9.27;;;2.20;;
14847;SDS011;7516;43.570;1.448;2023-03-14T03:46:39;11.10;;;3.00;;
14847;SDS011;7516;43.570;1.448;2023-03-14T03:49:07;13.67;;;2.70;;
14847;SDS011;7516;43.570;1.448;2023-03-14T03:51:35;10.10;;;2.50;;
14847;SDS011;7516;43.570;1.448;2023-03-14T03:54:02;7.07;;;2.10;;
14847;SDS011;7516;43.570;1.448;2023-03-14T03:56:30;10.40;;;1.90;;
14847;SDS011;7516;43.570;1.448;2023-03-14T03:58:57;9.50;;;2.60;;
14847;SDS011;7516;43.570;1.448;2023-03-14T04:01:25;7.30;;;1.90;;
14847;SDS011;7516;43.570;1.448;2023-03-14T04:03:52;8.77;;;2.57;;
14847;SDS011;7516;43.570;1.448;2023-03-14T04:06:21;11.63;;;2.33;;
14847;SDS011;7516;43.570;1.448;2023-03-14T04:08:49;9.13;;;2.10;;
14847;SDS011;7516;43.570;1.448;2023-03-14T04:11:16;10.67;;;3.17;;
14847;SDS011;7516;43.570;1.448;2023-03-14T04:13:43;10.67;;;3.00;;
14847;SDS011;7516;43.570;1.448;2023-03-14T04:16:12;11.83;;;2.80;;
14847;SDS011;7516;43.570;1.448;2023-03-14T04:18:42;9.70;;;2.03;;
14847;SDS011;7516;43.570;1.448;2023-03-14T04:21:10;10.03;;;2.10;;
14847;SDS011;7516;43.570;1.448;2023-03-14T04:23:39;11.20;;;2.93;;
14847;SDS011;7516;43.570;1.448;2023-03-14T04:26:07;12.23;;;2.20;;
14847;SDS011;7516;43.570;1.448;2023-03-14T04:28:34;10.20;;;2.13;;
14847;SDS011;7516;43.570;1.448;2023-03-14T04:31:06;6.90;;;1.50;;
14847;SDS011;7516;43.570;1.448;2023-03-14T04:33:34;9.13;;;1.73;;
14847;SDS011;7516;43.570;1.448;2023-03-14T04:36:02;5.40;;;1.67;;
14847;SDS011;7516;43.570;1.448;2023-03-14T04:38:31;5.70;;;2.00;;
14847;SDS011;7516;43.570;1.448;2023-03-14T04:41:00;10.87;;;2.50;;
14847;SDS011;7516;43.570;1.448;2023-03-14T04:43:28;7.80;;;2.47;;
14847;SDS011;7516;43.570;1.448;2023-03-14T04:45:56;12.80;;;2.33;;
14847;SDS011;7516;43.570;1.448;2023-03-14T04:48:25;10.33;;;1.90;;
14847;SDS011;7516;43.570;1.448;2023-03-14T04:50:52;9.00;;;2.10;;
14847;SDS011;7516;43.570;1.448;2023-03-14T04:53:20;12.50;;;3.10;;
14847;SDS011;7516;43.570;1.448;2023-03-14T04:55:48;9.00;;;2.17;;
14847;SDS011;7516;43.570;1.448;2023-03-14T04:58:18;12.77;;;3.03;;
14847;SDS011;7516;43.570;1.448;2023-03-14T05:00:47;9.93;;;2.17;;
14847;SDS011;7516;43.570;1.448;2023-03-14T05:03:14;12.77;;;2.97;;
14847;SDS011;7516;43.570;1.448;2023-03-14T05:05:42;11.93;;;2.97;;
14847;SDS011;7516;43.570;1.448;2023-03-14T05:08:10;10.90;;;2.60;;
14847;SDS011;7516;43.570;1.448;2023-03-14T05:10:38;14.77;;;3.30;;
14847;SDS011;7516;43.570;1.448;2023-03-14T05:13:05;12.97;;;3.50;;
14847;SDS011;7516;43.570;1.448;2023-03-14T05:15:34;17.43;;;4.40;;
14847;SDS011;7516;43.570;1.448;2023-03-14T05:18:02;17.27;;;3.80;;
14847;SDS011;7516;43.570;1.448;2023-03-14T05:20:30;15.00;;;3.67;;
14847;SDS011;7516;43.570;1.448;2023-03-14T05:22:57;14.43;;;3.07;;
14847;SDS011;7516;43.570;1.448;2023-03-14T05:25:25;15.07;;;4.47;;
14847;SDS011;7516;43.570;1.448;2023-03-14T05:27:53;14.00;;;2.87;;
14847;SDS011;7516;43.570;1.448;2023-03-14T05:30:21;16.63;;;3.67;;
14847;SDS011;7516;43.570;1.448;2023-03-14T05:32:50;16.17;;;3.73;;
14847;SDS011;7516;43.570;1.448;2023-03-14T05:35:17;12.03;;;3.67;;
14847;SDS011;7516;43.570;1.448;2023-03-14T05:37:45;16.00;;;3.43;;
14847;SDS011;7516;43.570;1.448;2023-03-14T05:40:12;12.23;;;2.80;;
14847;SDS011;7516;43.570;1.448;2023-03-14T05:42:40;13.00;;;2.83;;
14847;SDS011;7516;43.570;1.448;2023-03-14T05:45:07;10.60;;;2.20;;
14847;SDS011;7516;43.570;1.448;2023-03-14T05:47:35;13.77;;;2.87;;
14847;SDS011;7516;43.570;1.448;2023-03-14T05:50:04;9.17;;;1.90;;
14847;SDS011;7516;43.570;1.448;2023-03-14T05:52:32;11.07;;;2.63;;
14847;SDS011;7516;43.570;1.448;2023-03-14T05:55:00;9.00;;;2.37;;
14847;SDS011;7516;43.570;1.448;2023-03-14T05:57:27;11.53;;;2.47;;
14847;SDS011;7516;43.570;1.448;2023-03-14T05:59:55;10.33;;;2.27;;
14847;SDS011;7516;43.570;1.448;2023-03-14T06:02:22;10.70;;;2.00;;
14847;SDS011;7516;43.570;1.448;2023-03-14T06:04:50;10.13;;;2.70;;
14847;SDS011;7516;43.570;1.448;2023-03-14T06:07:19;10.03;;;2.37;;
14847;SDS011;7516;43.570;1.448;2023-03-14T06:09:47;13.97;;;3.10;;
14847;SDS011;7516;43.570;1.448;2023-03-14T06:12:14;11.27;;;3.47;;
14847;SDS011;7516;43.570;1.448;2023-03-14T06:14:42;14.67;;;3.80;;
14847;SDS011;7516;43.570;1.448;2023-03-14T06:17:09;12.53;;;2.57;;
14847;SDS011;7516;43.570;1.448;2023-03-14T06:19:37;12.57;;;2.90;;
14847;SDS011;7516;43.570;1.448;2023-03-14T06:22:04;11.43;;;2.93;;
14847;SDS011;7516;43.570;1.448;2023-03-14T06:24:33;11.93;;;2.60;;
14847;SDS011;7516;43.570;1.448;2023-03-14T06:27:01;14.40;;;3.30;;
14847;SDS011;7516;43.570;1.448;2023-03-14T06:29:29;14.93;;;2.73;;
14847;SDS011;7516;43.570;1.448;2023-03-14T06:31:57;11.27;;;3.00;;
14847;SDS011;7516;43.570;1.448;2023-03-14T06:34:24;17.13;;;3.17;;
14847;SDS011;7516;43.570;1.448;2023-03-14T06:36:51;12.30;;;2.77;;
14847;SDS011;7516;43.570;1.448;2023-03-14T06:39:19;13.87;;;3.10;;
14847;SDS011;7516;43.570;1.448;2023-03-14T06:41:48;11.37;;;2.63;;
14847;SDS011;7516;43.570;1.448;2023-03-14T06:44:15;11.07;;;2.43;;
14847;SDS011;7516;43.570;1.448;2023-03-14T06:46:43;14.83;;;3.77;;
14847;SDS011;7516;43.570;1.448;2023-03-14T06:49:10;17.90;;;3.87;;
14847;SDS011;7516;43.570;1.448;2023-03-14T06:51:38;17.83;;;3.60;;
14847;SDS011;7516;43.570;1.448;2023-03-14T06:54:05;15.97;;;3.50;;
14847;SDS011;7516;43.570;1.448;2023-03-14T06:56:33;18.40;;;4.57;;
14847;SDS011;7516;43.570;1.448;2023-03-14T06:59:02;17.53;;;4.07;;
14847;SDS011;7516;43.570;1.448;2023-03-14T07:01:29;20.43;;;4.40;;
14847;SDS011;7516;43.570;1.448;2023-03-14T07:03:59;15.17;;;3.30;;
14847;SDS011;7516;43.570;1.448;2023-03-14T07:06:27;20.00;;;3.97;;
14847;SDS011;7516;43.570;1.448;2023-03-14T07:08:55;18.17;;;3.87;;
14847;SDS011;7516;43.570;1.448;2023-03-14T07:11:23;18.63;;;3.67;;
14847;SDS011;7516;43.570;1.448;2023-03-14T07:13:51;17.87;;;3.60;;
14847;SDS011;7516;43.570;1.448;2023-03-14T07:16:20;23.03;;;4.57;;
14847;SDS011;7516;43.570;1.448;2023-03-14T07:18:47;21.07;;;5.73;;
14847;SDS011;7516;43.570;1.448;2023-03-14T07:21:15;16.97;;;3.77;;
14847;SDS011;7516;43.570;1.448;2023-03-14T07:23:42;17.13;;;3.73;;
14847;SDS011;7516;43.570;1.448;2023-03-14T07:26:11;22.83;;;4.17;;
14847;SDS011;7516;43.570;1.448;2023-03-14T07:28:38;16.53;;;3.67;;
14847;SDS011;7516;43.570;1.448;2023-03-14T07:31:06;22.93;;;4.73;;
14847;SDS011;7516;43.570;1.448;2023-03-14T07:33:35;24.63;;;5.40;;
14847;SDS011;7516;43.570;1.448;2023-03-14T07:36:03;25.10;;;5.97;;
14847;SDS011;7516;43.570;1.448;2023-03-14T07:38:31;16.90;;;3.90;;
14847;SDS011;7516;43.570;1.448;2023-03-14T07:40:59;18.63;;;4.20;;
14847;SDS011;7516;43.570;1.448;2023-03-14T07:43:27;19.87;;;5.10;;
14847;SDS011;7516;43.570;1.448;2023-03-14T07:45:54;21.53;;;4.13;;
14847;SDS011;7516;43.570;1.448;2023-03-14T07:48:22;21.90;;;4.80;;
14847;SDS011;7516;43.570;1.448;2023-03-14T07:50:53;25.93;;;5.27;;
14847;SDS011;7516;43.570;1.448;2023-03-14T07:53:21;23.43;;;4.73;;
14847;SDS011;7516;43.570;1.448;2023-03-14T07:55:50;22.40;;;4.97;;
14847;SDS011;7516;43.570;1.448;2023-03-14T07:58:18;20.57;;;4.40;;
14847;SDS011;7516;43.570;1.448;2023-03-14T08:00:46;24.20;;;5.07;;
14847;SDS011;7516;43.570;1.448;2023-03-14T08:03:14;20.73;;;4.53;;
14847;SDS011;7516;43.570;1.448;2023-03-14T08:05:42;25.20;;;5.63;;
14847;SDS011;7516;43.570;1.448;2023-03-14T08:08:11;20.73;;;3.77;;
14847;SDS011;7516;43.570;1.448;2023-03-14T08:10:38;25.60;;;5.80;;
14847;SDS011;7516;43.570;1.448;2023-03-14T08:13:06;23.50;;;5.13;;
14847;SDS011;7516;43.570;1.448;2023-03-14T08:15:35;27.57;;;5.30;;
14847;SDS011;7516;43.570;1.448;2023-03-14T08:18:03;23.97;;;4.93;;
14847;SDS011;7516;43.570;1.448;2023-03-14T08:20:32;25.20;;;5.07;;
14847;SDS011;7516;43.570;1.448;2023-03-14T08:23:00;27.13;;;5.93;;
14847;SDS011;7516;43.570;1.448;2023-03-14T08:25:29;26.00;;;5.13;;
14847;SDS011;7516;43.570;1.448;2023-03-14T08:27:57;23.17;;;6.33;;
14847;SDS011;7516;43.570;1.448;2023-03-14T08:30:24;22.63;;;4.50;;
14847;SDS011;7516;43.570;1.448;2023-03-14T08:32:52;24.80;;;6.00;;
14847;SDS011;7516;43.570;1.448;2023-03-14T08:35:19;24.03;;;6.27;;
14847;SDS011;7516;43.570;1.448;2023-03-14T08:37:47;20.97;;;3.67;;
14847;SDS011;7516;43.570;1.448;2023-03-14T08:40:15;20.47;;;5.57;;
14847;SDS011;7516;43.570;1.448;2023-03-14T08:42:44;23.07;;;4.83;;
14847;SDS011;7516;43.570;1.448;2023-03-14T08:45:12;19.17;;;4.73;;
14847;SDS011;7516;43.570;1.448;2023-03-14T08:47:42;23.70;;;5.33;;
14847;SDS011;7516;43.570;1.448;2023-03-14T08:50:10;22.50;;;4.17;;
14847;SDS011;7516;43.570;1.448;2023-03-14T08:52:38;24.40;;;5.23;;
14847;SDS011;7516;43.570;1.448;2023-03-14T08:55:06;19.57;;;3.83;;
14847;SDS011;7516;43.570;1.448;2023-03-14T08:57:35;18.07;;;4.23;;
14847;SDS011;7516;43.570;1.448;2023-03-14T09:00:04;23.90;;;4.80;;
14847;SDS011;7516;43.570;1.448;2023-03-14T09:02:35;20.17;;;4.37;;
14847;SDS011;7516;43.570;1.448;2023-03-14T09:05:03;20.37;;;4.37;;
14847;SDS011;7516;43.570;1.448;2023-03-14T09:07:31;17.03;;;3.27;;
14847;SDS011;7516;43.570;1.448;2023-03-14T09:09:59;21.97;;;4.60;;
14847;SDS011;7516;43.570;1.448;2023-03-14T09:12:26;19.13;;;3.87;;
14847;SDS011;7516;43.570;1.448;2023-03-14T09:14:54;16.03;;;4.10;;
14847;SDS011;7516;43.570;1.448;2023-03-14T09:17:23;16.53;;;4.13;;
14847;SDS011;7516;43.570;1.448;2023-03-14T09:19:50;18.70;;;3.80;;
14847;SDS011;7516;43.570;1.448;2023-03-14T09:22:18;21.57;;;4.00;;
14847;SDS011;7516;43.570;1.448;2023-03-14T09:24:46;16.43;;;3.40;;
14847;SDS011;7516;43.570;1.448;2023-03-14T09:27:14;10.13;;;2.43;;
14847;SDS011;7516;43.570;1.448;2023-03-14T09:29:41;9.47;;;2.27;;
14847;SDS011;7516;43.570;1.448;2023-03-14T09:32:08;9.33;;;1.80;;
14847;SDS011;7516;43.570;1.448;2023-03-14T09:34:37;9.80;;;2.10;;
14847;SDS011;7516;43.570;1.448;2023-03-14T09:37:05;9.40;;;2.50;;
14847;SDS011;7516;43.570;1.448;2023-03-14T09:39:32;7.23;;;2.30;;
14847;SDS011;7516;43.570;1.448;2023-03-14T09:42:01;6.63;;;2.00;;
14847;SDS011;7516;43.570;1.448;2023-03-14T09:44:31;10.00;;;2.30;;
14847;SDS011;7516;43.570;1.448;2023-03-14T09:47:02;9.23;;;2.40;;
14847;SDS011;7516;43.570;1.448;2023-03-14T09:49:33;9.43;;;2.20;;
14847;SDS011;7516;43.570;1.448;2023-03-14T09:52:05;11.47;;;2.33;;
14847;SDS011;7516;43.570;1.448;2023-03-14T09:54:40;12.60;;;2.57;;
14847;SDS011;7516;43.570;1.448;2023-03-14T09:57:14;12.03;;;2.63;;
14847;SDS011;7516;43.570;1.448;2023-03-14T09:59:44;13.63;;;2.83;;
14847;SDS011;7516;43.570;1.448;2023-03-14T10:02:15;12.83;;;2.80;;
14847;SDS011;7516;43.570;1.448;2023-03-14T10:04:45;10.93;;;2.63;;
14847;SDS011;7516;43.570;1.448;2023-03-14T10:07:16;13.43;;;2.57;;
14847;SDS011;7516;43.570;1.448;2023-03-14T10:09:47;12.73;;;2.30;;
14847;SDS011;7516;43.570;1.448;2023-03-14T10:12:17;11.77;;;3.27;;
14847;SDS011;7516;43.570;1.448;2023-03-14T10:14:46;11.07;;;2.50;;
14847;SDS011;7516;43.570;1.448;2023-03-14T10:17:15;12.47;;;2.63;;
14847;SDS011;7516;43.570;1.448;2023-03-14T10:19:51;11.57;;;2.40;;
14847;SDS011;7516;43.570;1.448;2023-03-14T10:22:22;9.00;;;1.80;;
14847;SDS011;7516;43.570;1.448;2023-03-14T10:24:53;9.53;;;2.27;;
14847;SDS011;7516;43.570;1.448;2023-03-14T10:27:27;13.60;;;3.30;;
14847;SDS011;7516;43.570;1.448;2023-03-14T10:29:57;12.83;;;2.87;;
14847;SDS011;7516;43.570;1.448;2023-03-14T10:32:31;10.73;;;3.57;;
14847;SDS011;7516;43.570;1.448;2023-03-14T10:35:04;13.60;;;3.13;;
14847;SDS011;7516;43.570;1.448;2023-03-14T10:37:51;14.53;;;4.23;;
14847;SDS011;7516;43.570;1.448;2023-03-14T10:40:23;13.30;;;3.27;;
14847;SDS011;7516;43.570;1.448;2023-03-14T10:42:54;10.17;;;2.37;;
14847;SDS011;7516;43.570;1.448;2023-03-14T10:45:33;12.00;;;2.47;;
14847;SDS011;7516;43.570;1.448;2023-03-14T10:48:13;13.20;;;3.33;;
14847;SDS011;7516;43.570;1.448;2023-03-14T10:50:48;9.20;;;2.67;;
14847;SDS011;7516;43.570;1.448;2023-03-14T10:53:34;9.63;;;2.53;;
14847;SDS011;7516;43.570;1.448;2023-03-14T10:56:07;12.23;;;2.50;;
14847;SDS011;7516;43.570;1.448;2023-03-14T10:58:40;12.57;;;2.87;;
14847;SDS011;7516;43.570;1.448;2023-03-14T11:01:14;14.43;;;3.40;;
14847;SDS011;7516;43.570;1.448;2023-03-14T11:03:54;9.20;;;2.53;;
14847;SDS011;7516;43.570;1.448;2023-03-14T11:06:27;12.00;;;3.37;;
14847;SDS011;7516;43.570;1.448;2023-03-14T11:09:04;8.63;;;1.70;;
14847;SDS011;7516;43.570;1.448;2023-03-14T11:11:36;6.87;;;1.50;;
14847;SDS011;7516;43.570;1.448;2023-03-14T11:14:12;4.90;;;1.30;;
14847;SDS011;7516;43.570;1.448;2023-03-14T11:16:49;6.00;;;1.60;;
14847;SDS011;7516;43.570;1.448;2023-03-14T11:19:46;5.53;;;1.27;;
14847;SDS011;7516;43.570;1.448;2023-03-14T11:22:23;6.80;;;1.57;;
14847;SDS011;7516;43.570;1.448;2023-03-14T11:27:55;7.80;;;1.63;;
14847;SDS011;7516;43.570;1.448;2023-03-14T11:30:32;4.60;;;1.10;;
14847;SDS011;7516;43.570;1.448;2023-03-14T11:33:07;6.30;;;2.00;;
14847;SDS011;7516;43.570;1.448;2023-03-14T11:35:42;8.67;;;2.07;;
14847;SDS011;7516;43.570;1.448;2023-03-14T11:38:15;9.13;;;2.27;;
14847;SDS011;7516;43.570;1.448;2023-03-14T11:40:56;5.47;;;1.60;;
14847;SDS011;7516;43.570;1.448;2023-03-14T11:43:26;4.73;;;1.50;;
14847;SDS011;7516;43.570;1.448;2023-03-14T11:45:57;3.90;;;0.97;;
14847;SDS011;7516;43.570;1.448;2023-03-14T11:48:33;8.17;;;1.77;;
14847;SDS011;7516;43.570;1.448;2023-03-14T11:51:06;6.07;;;1.47;;
14847;SDS011;7516;43.570;1.448;2023-03-14T11:53:43;4.27;;;1.33;;
14847;SDS011;7516;43.570;1.448;2023-03-14T11:56:19;5.90;;;1.17;;
14847;SDS011;7516;43.570;1.448;2023-03-14T11:58:55;4.53;;;1.17;;
14847;SDS011;7516;43.570;1.448;2023-03-14T12:01:29;4.13;;;1.10;;
14847;SDS011;7516;43.570;1.448;2023-03-14T12:04:05;3.63;;;1.37;;
14847;SDS011;7516;43.570;1.448;2023-03-14T12:06:41;5.07;;;1.20;;
14847;SDS011;7516;43.570;1.448;2023-03-14T12:09:15;4.73;;;1.23;;
14847;SDS011;7516;43.570;1.448;2023-03-14T12:11:46;6.57;;;1.07;;
14847;SDS011;7516;43.570;1.448;2023-03-14T12:14:19;5.67;;;0.90;;
14847;SDS011;7516;43.570;1.448;2023-03-14T12:16:54;4.83;;;1.00;;
14847;SDS011;7516;43.570;1.448;2023-03-14T12:19:30;6.47;;;1.37;;
14847;SDS011;7516;43.570;1.448;2023-03-14T12:24:51;6.37;;;1.40;;
14847;SDS011;7516;43.570;1.448;2023-03-14T12:27:45;5.47;;;1.30;;
14847;SDS011;7516;43.570;1.448;2023-03-14T12:30:21;3.97;;;0.90;;
14847;SDS011;7516;43.570;1.448;2023-03-14T12:35:57;6.07;;;1.20;;
14847;SDS011;7516;43.570;1.448;2023-03-14T12:38:28;4.13;;;1.10;;
14847;SDS011;7516;43.570;1.448;2023-03-14T12:41:17;4.70;;;1.20;;
14847;SDS011;7516;43.570;1.448;2023-03-14T12:43:49;4.80;;;1.10;;
14847;SDS011;7516;43.570;1.448;2023-03-14T12:46:21;6.20;;;1.40;;
14847;SDS011;7516;43.570;1.448;2023-03-14T12:48:53;5.77;;;1.40;;
14847;SDS011;7516;43.570;1.448;2023-03-14T12:51:28;5.30;;;1.30;;
14847;SDS011;7516;43.570;1.448;2023-03-14T12:54:05;4.20;;;0.93;;
14847;SDS011;7516;43.570;1.448;2023-03-14T12:57:04;7.53;;;1.13;;
14847;SDS011;7516;43.570;1.448;2023-03-14T12:59:45;7.10;;;1.70;;
14847;SDS011;7516;43.570;1.448;2023-03-14T13:02:24;5.57;;;1.00;;
14847;SDS011;7516;43.570;1.448;2023-03-14T13:04:59;5.83;;;1.63;;
14847;SDS011;7516;43.570;1.448;2023-03-14T13:07:39;4.83;;;1.20;;
14847;SDS011;7516;43.570;1.448;2023-03-14T13:10:38;6.57;;;1.60;;
14847;SDS011;7516;43.570;1.448;2023-03-14T13:13:14;6.57;;;1.63;;
14847;SDS011;7516;43.570;1.448;2023-03-14T13:15:47;4.37;;;1.27;;
14847;SDS011;7516;43.570;1.448;2023-03-14T13:18:17;3.37;;;1.20;;
14847;SDS011;7516;43.570;1.448;2023-03-14T13:20:53;6.63;;;1.10;;
14847;SDS011;7516;43.570;1.448;2023-03-14T13:23:25;6.07;;;1.30;;
14847;SDS011;7516;43.570;1.448;2023-03-14T13:25:54;7.17;;;1.77;;
14847;SDS011;7516;43.570;1.448;2023-03-14T13:28:22;7.27;;;1.50;;
14847;SDS011;7516;43.570;1.448;2023-03-14T13:30:54;5.27;;;1.20;;
14847;SDS011;7516;43.570;1.448;2023-03-14T13:33:23;6.93;;;1.67;;
14847;SDS011;7516;43.570;1.448;2023-03-14T13:35:54;6.77;;;1.50;;
14847;SDS011;7516;43.570;1.448;2023-03-14T13:38:24;4.80;;;1.40;;
14847;SDS011;7516;43.570;1.448;2023-03-14T13:40:54;8.50;;;1.40;;
14847;SDS011;7516;43.570;1.448;2023-03-14T13:43:25;4.47;;;1.00;;
14847;SDS011;7516;43.570;1.448;2023-03-14T13:46:01;6.60;;;1.43;;
14847;SDS011;7516;43.570;1.448;2023-03-14T13:48:30;5.67;;;1.10;;
14847;SDS011;7516;43.570;1.448;2023-03-14T13:51:01;10.73;;;1.87;;
14847;SDS011;7516;43.570;1.448;2023-03-14T13:53:31;2.23;;;0.80;;
14847;SDS011;7516;43.570;1.448;2023-03-14T13:56:08;0.90;;;0.30;;
14847;SDS011;7516;43.570;1.448;2023-03-14T13:58:37;1.27;;;0.37;;
14847;SDS011;7516;43.570;1.448;2023-03-14T14:01:10;2.00;;;0.47;;
14847;SDS011;7516;43.570;1.448;2023-03-14T14:03:41;0.50;;;0.23;;
14847;SDS011;7516;43.570;1.448;2023-03-14T14:06:16;1.53;;;0.60;;
14847;SDS011;7516;43.570;1.448;2023-03-14T14:08:49;2.00;;;0.47;;
14847;SDS011;7516;43.570;1.448;2023-03-14T14:11:19;1.33;;;0.53;;
14847;SDS011;7516;43.570;1.448;2023-03-14T14:13:58;0.90;;;0.43;;
14847;SDS011;7516;43.570;1.448;2023-03-14T14:16:27;3.93;;;0.47;;
14847;SDS011;7516;43.570;1.448;2023-03-14T14:18:56;3.17;;;0.40;;
14847;SDS011;7516;43.570;1.448;2023-03-14T14:21:26;3.50;;;0.53;;
14847;SDS011;7516;43.570;1.448;2023-03-14T14:23:53;1.50;;;0.57;;
14847;SDS011;7516;43.570;1.448;2023-03-14T14:26:21;0.60;;;0.40;;
14847;SDS011;7516;43.570;1.448;2023-03-14T14:28:57;4.57;;;0.70;;
14847;SDS011;7516;43.570;1.448;2023-03-14T14:31:28;2.60;;;0.60;;
14847;SDS011;7516;43.570;1.448;2023-03-14T14:33:56;3.10;;;0.80;;
14847;SDS011;7516;43.570;1.448;2023-03-14T14:36:26;2.60;;;0.80;;
14847;SDS011;7516;43.570;1.448;2023-03-14T14:38:57;2.13;;;0.63;;
14847;SDS011;7516;43.570;1.448;2023-03-14T14:41:26;3.50;;;0.90;;
14847;SDS011;7516;43.570;1.448;2023-03-14T14:44:00;2.27;;;0.67;;
14847;SDS011;7516;43.570;1.448;2023-03-14T14:46:32;1.73;;;0.70;;
14847;SDS011;7516;43.570;1.448;2023-03-14T14:49:03;3.90;;;0.97;;
14847;SDS011;7516;43.570;1.448;2023-03-14T14:51:38;5.13;;;0.93;;
14847;SDS011;7516;43.570;1.448;2023-03-14T14:54:15;4.53;;;0.97;;
14847;SDS011;7516;43.570;1.448;2023-03-14T14:56:48;5.70;;;1.07;;
14847;SDS011;7516;43.570;1.448;2023-03-14T14:59:21;5.20;;;1.10;;
14847;SDS011;7516;43.570;1.448;2023-03-14T15:01:56;4.20;;;1.17;;
14847;SDS011;7516;43.570;1.448;2023-03-14T15:04:24;4.67;;;0.90;;
14847;SDS011;7516;43.570;1.448;2023-03-14T15:06:52;3.40;;;0.80;;
14847;SDS011;7516;43.570;1.448;2023-03-14T15:09:20;3.50;;;0.87;;
14847;SDS011;7516;43.570;1.448;2023-03-14T15:11:47;4.00;;;0.80;;
14847;SDS011;7516;43.570;1.448;2023-03-14T15:14:15;1.90;;;0.63;;
14847;SDS011;7516;43.570;1.448;2023-03-14T15:16:43;4.73;;;0.80;;
14847;SDS011;7516;43.570;1.448;2023-03-14T15:19:12;4.13;;;0.80;;
14847;SDS011;7516;43.570;1.448;2023-03-14T15:21:45;4.90;;;1.00;;
14847;SDS011;7516;43.570;1.448;2023-03-14T15:24:12;3.87;;;0.83;;